createdAt,value
2022-10-06T00:01:22.890Z,7.40
2022-10-06T00:04:12.222Z,7.50
2022-10-06T00:06:59.883Z,7.50
2022-10-06T00:09:47.797Z,7.50
2022-10-06T00:12:40.958Z,7.50
2022-10-06T00:15:31.614Z,7.50
2022-10-06T00:18:19.216Z,7.50
2022-10-06T00:21:08.888Z,7.60
2022-10-06T00:23:56.779Z,7.60
2022-10-06T00:26:44.528Z,7.60
2022-10-06T00:29:32.076Z,7.50
2022-10-06T00:32:19.589Z,7.50
2022-10-06T00:35:09.263Z,7.60
2022-10-06T00:37:58.887Z,7.50
2022-10-06T00:40:48.526Z,7.50
2022-10-06T00:43:49.929Z,7.60
2022-10-06T00:46:45.285Z,7.60
2022-10-06T00:49:37.937Z,7.60
2022-10-06T00:52:29.693Z,7.60
2022-10-06T00:55:20.403Z,7.60
2022-10-06T00:58:08.841Z,7.60
2022-10-06T01:00:57.914Z,7.60
2022-10-06T01:03:51.581Z,7.60
2022-10-06T01:06:45.317Z,7.60
2022-10-06T01:09:33.439Z,7.60
2022-10-06T01:12:23.227Z,7.60
2022-10-06T01:15:11.957Z,7.60
2022-10-06T01:18:05.119Z,7.60
2022-10-06T01:20:59.427Z,7.60
2022-10-06T01:23:49.935Z,7.60
2022-10-06T01:26:42.017Z,7.60
2022-10-06T01:29:32.681Z,7.50
2022-10-06T01:32:20.771Z,7.50
2022-10-06T01:35:10.487Z,7.50
2022-10-06T01:37:59.947Z,7.50
2022-10-06T01:40:53.093Z,7.50
2022-10-06T01:43:41.157Z,7.60
2022-10-06T01:46:30.550Z,7.60
2022-10-06T01:49:18.167Z,7.60
2022-10-06T01:52:06.153Z,7.60
2022-10-06T01:54:55.913Z,7.50
2022-10-06T01:57:45.797Z,7.50
2022-10-06T02:00:34.012Z,7.50
2022-10-06T02:03:21.954Z,7.50
2022-10-06T02:06:10.764Z,7.40
2022-10-06T02:09:00.900Z,7.40
2022-10-06T02:11:48.585Z,7.40
2022-10-06T02:14:37.948Z,7.30
2022-10-06T02:17:25.836Z,7.30
2022-10-06T02:20:13.649Z,7.30
2022-10-06T02:23:02.623Z,7.30
2022-10-06T02:25:50.483Z,7.30
2022-10-06T02:28:38.551Z,7.20
2022-10-06T02:31:29.265Z,7.20
2022-10-06T02:34:17.348Z,7.10
2022-10-06T02:37:05.526Z,7.10
2022-10-06T02:39:53.122Z,7.10
2022-10-06T02:42:41.201Z,7.00
2022-10-06T02:45:31.273Z,7.00
2022-10-06T02:48:21.031Z,7.00
2022-10-06T02:51:11.610Z,7.00
2022-10-06T02:53:59.692Z,7.00
2022-10-06T02:56:47.265Z,7.00
2022-10-06T02:59:35.197Z,7.00
2022-10-06T03:02:23.826Z,7.00
2022-10-06T03:05:12.911Z,7.10
2022-10-06T03:08:01.214Z,7.10
2022-10-06T03:10:49.541Z,7.10
2022-10-06T03:13:37.014Z,7.10
2022-10-06T03:16:26.829Z,7.20
2022-10-06T03:19:14.757Z,7.20
2022-10-06T03:22:06.912Z,7.30
2022-10-06T03:25:01.299Z,7.30
2022-10-06T03:27:48.735Z,7.30
2022-10-06T03:30:36.773Z,7.30
2022-10-06T03:33:24.945Z,7.30
2022-10-06T03:36:13.134Z,7.30
2022-10-06T03:39:02.212Z,7.20
2022-10-06T03:41:49.936Z,7.20
2022-10-06T03:44:37.170Z,7.10
2022-10-06T03:47:25.471Z,7.10
2022-10-06T03:50:13.136Z,7.10
2022-10-06T03:53:01.795Z,7.00
2022-10-06T03:55:51.701Z,7.00
2022-10-06T03:58:40.117Z,7.00
2022-10-06T04:01:29.076Z,6.90
2022-10-06T04:04:17.183Z,6.90
2022-10-06T04:07:09.026Z,6.90
2022-10-06T04:09:56.307Z,6.80
2022-10-06T04:12:44.993Z,6.80
2022-10-06T04:15:32.600Z,6.80
2022-10-06T04:18:20.319Z,6.80
2022-10-06T04:21:07.876Z,6.80
2022-10-06T04:23:55.468Z,6.80
2022-10-06T04:26:45.190Z,6.80
2022-10-06T04:29:33.979Z,6.80
2022-10-06T04:32:23.286Z,6.70
2022-10-06T04:35:10.795Z,6.70
2022-10-06T04:37:58.455Z,6.70
2022-10-06T04:40:45.979Z,6.70
2022-10-06T04:43:33.851Z,6.70
2022-10-06T04:46:42.202Z,6.60
2022-10-06T04:49:31.816Z,6.60
2022-10-06T04:52:19.741Z,6.60
2022-10-06T04:55:08.001Z,6.60
2022-10-06T04:57:56.245Z,6.60
2022-10-06T05:00:44.132Z,6.60
2022-10-06T05:03:32.971Z,6.60
2022-10-06T05:06:21.235Z,6.50
2022-10-06T05:09:09.922Z,6.50
2022-10-06T05:11:58.960Z,6.50
2022-10-06T05:14:47.056Z,6.50
2022-10-06T05:17:35.585Z,6.60
2022-10-06T05:20:25.029Z,6.60
2022-10-06T05:23:13.200Z,6.60
2022-10-06T05:26:01.673Z,6.60
2022-10-06T05:28:49.491Z,6.70
2022-10-06T05:31:39.011Z,6.70
2022-10-06T05:34:26.972Z,6.80
2022-10-06T05:37:15.922Z,6.80
2022-10-06T05:40:04.673Z,6.90
2022-10-06T05:42:52.014Z,6.90
2022-10-06T05:45:39.441Z,7.00
2022-10-06T05:48:27.994Z,7.00
2022-10-06T05:51:15.769Z,7.10
2022-10-06T05:54:04.798Z,7.10
2022-10-06T05:56:51.924Z,7.20
2022-10-06T05:59:39.462Z,7.30
2022-10-06T06:02:27.803Z,7.30
2022-10-06T06:05:15.390Z,7.40
2022-10-06T06:08:02.859Z,7.50
2022-10-06T06:10:51.886Z,7.70
2022-10-06T06:13:39.867Z,7.90
2022-10-06T06:16:33.515Z,8.10
2022-10-06T06:19:23.965Z,8.40
2022-10-06T06:22:14.695Z,8.60
2022-10-06T06:25:04.392Z,8.70
2022-10-06T06:27:58.094Z,8.90
2022-10-06T06:30:47.179Z,9.10
2022-10-06T06:33:35.810Z,9.30
2022-10-06T06:36:25.780Z,9.50
2022-10-06T06:39:15.219Z,9.70
2022-10-06T06:42:05.200Z,9.90
2022-10-06T06:45:00.183Z,10.10
2022-10-06T06:47:56.318Z,10.30
2022-10-06T06:50:46.037Z,10.60
2022-10-06T06:53:35.029Z,10.90
2022-10-06T06:56:23.716Z,11.20
2022-10-06T06:59:14.626Z,11.40
2022-10-06T07:02:06.848Z,11.70
2022-10-06T07:04:58.525Z,11.90
2022-10-06T07:07:46.090Z,12.20
2022-10-06T07:10:36.224Z,12.40
2022-10-06T07:13:25.665Z,12.70
2022-10-06T07:16:33.132Z,12.90
2022-10-06T07:19:40.658Z,13.30
2022-10-06T07:22:47.736Z,13.80
2022-10-06T07:25:38.803Z,14.20
2022-10-06T07:28:30.798Z,14.60
2022-10-06T07:31:19.264Z,14.90
2022-10-06T07:34:08.668Z,15.10
2022-10-06T07:37:00.456Z,15.30
2022-10-06T07:39:49.793Z,15.40
2022-10-06T07:42:49.234Z,15.60
2022-10-06T07:45:46.998Z,15.80
2022-10-06T07:48:54.114Z,16.00
2022-10-06T07:51:43.088Z,16.20
2022-10-06T07:54:34.065Z,16.40
2022-10-06T07:57:46.285Z,16.50
2022-10-06T08:00:34.113Z,16.70
2022-10-06T08:03:22.170Z,16.90
2022-10-06T08:06:12.509Z,17.00
2022-10-06T08:09:03.160Z,17.20
2022-10-06T08:11:53.025Z,17.30
2022-10-06T08:14:40.553Z,17.50
2022-10-06T08:17:28.461Z,17.70
2022-10-06T08:20:17.216Z,17.80
2022-10-06T08:23:08.707Z,17.90
2022-10-06T08:25:56.510Z,18.00
2022-10-06T08:28:47.734Z,18.00
2022-10-06T08:31:35.516Z,18.20
2022-10-06T08:34:23.658Z,18.20
2022-10-06T08:37:19.849Z,18.20
2022-10-06T08:40:08.733Z,18.30
2022-10-06T08:42:59.016Z,18.40
2022-10-06T08:45:49.509Z,18.50
2022-10-06T08:48:38.874Z,18.40
2022-10-06T08:51:39.000Z,18.50
2022-10-06T08:54:33.381Z,18.50
2022-10-06T08:57:24.146Z,18.30
2022-10-06T09:00:18.022Z,18.20
2022-10-06T09:03:23.087Z,18.20
2022-10-06T09:06:19.515Z,18.20
2022-10-06T09:09:20.951Z,18.30
2022-10-06T09:12:15.666Z,18.30
2022-10-06T09:15:19.175Z,18.40
2022-10-06T09:18:11.460Z,18.40
2022-10-06T09:21:02.778Z,18.40
2022-10-06T09:23:57.124Z,18.50
2022-10-06T09:26:47.357Z,18.50
2022-10-06T09:29:35.026Z,18.80
2022-10-06T09:32:24.143Z,18.90
2022-10-06T09:35:19.331Z,18.90
2022-10-06T09:38:09.373Z,18.80
2022-10-06T09:40:57.746Z,19.10
2022-10-06T09:44:01.249Z,19.40
2022-10-06T09:46:49.154Z,19.40
2022-10-06T09:49:37.146Z,19.30
2022-10-06T09:52:24.690Z,19.10
2022-10-06T09:55:15.646Z,18.80
2022-10-06T09:58:04.374Z,18.60
2022-10-06T10:00:56.294Z,18.40
2022-10-06T10:04:15.643Z,18.20
2022-10-06T10:07:15.389Z,18.10
2022-10-06T10:10:21.573Z,18.00
2022-10-06T10:13:20.689Z,18.00
2022-10-06T10:16:10.878Z,17.90
2022-10-06T10:19:00.196Z,17.80
2022-10-06T10:21:48.214Z,17.70
2022-10-06T10:24:53.506Z,17.70
2022-10-06T10:27:55.774Z,17.70
2022-10-06T10:30:52.004Z,17.70
2022-10-06T10:33:54.174Z,17.70
2022-10-06T10:36:58.690Z,17.70
2022-10-06T10:39:52.478Z,17.70
2022-10-06T10:42:48.031Z,17.70
2022-10-06T10:45:38.335Z,17.80
2022-10-06T10:48:31.537Z,17.80
2022-10-06T10:51:25.932Z,17.70
2022-10-06T10:54:17.389Z,17.60
2022-10-06T10:57:05.859Z,17.70
2022-10-06T11:00:01.940Z,17.60
2022-10-06T11:02:50.749Z,17.60
2022-10-06T11:05:57.995Z,17.60
2022-10-06T11:08:55.389Z,17.60
2022-10-06T11:11:56.965Z,17.60
2022-10-06T11:14:52.588Z,17.50
2022-10-06T11:17:50.337Z,17.50
2022-10-06T11:20:49.871Z,17.60
2022-10-06T11:23:55.209Z,17.80
2022-10-06T11:26:59.086Z,18.00
2022-10-06T11:29:58.520Z,18.10
2022-10-06T11:33:01.338Z,18.20
2022-10-06T11:35:50.021Z,18.30
2022-10-06T11:38:43.481Z,18.30
2022-10-06T11:41:35.696Z,18.30
2022-10-06T11:44:32.638Z,18.40
2022-10-06T11:47:35.197Z,18.50
2022-10-06T11:50:39.661Z,18.60
2022-10-06T11:53:38.389Z,18.60
2022-10-06T11:56:47.114Z,18.60
2022-10-06T11:59:34.735Z,18.40
2022-10-06T12:02:38.671Z,18.50
2022-10-06T12:08:42.739Z,18.40
2022-10-06T12:11:40.528Z,18.50
2022-10-06T12:17:55.666Z,19.00
2022-10-06T12:20:56.914Z,19.10
2022-10-06T12:23:53.557Z,19.10
2022-10-06T12:26:51.438Z,19.10
2022-10-06T12:29:47.395Z,18.90
2022-10-06T12:32:50.313Z,18.80
2022-10-06T12:35:40.167Z,18.70
2022-10-06T12:38:44.363Z,18.70
2022-10-06T12:41:59.882Z,18.60
2022-10-06T12:44:51.614Z,18.60
2022-10-06T12:47:44.286Z,18.60
2022-10-06T12:50:32.582Z,18.60
2022-10-06T12:53:27.767Z,18.60
2022-10-06T12:56:28.631Z,18.60
2022-10-06T12:59:24.361Z,18.50
2022-10-06T13:02:18.354Z,18.50
2022-10-06T13:05:13.461Z,18.70
2022-10-06T13:08:03.550Z,18.80
2022-10-06T13:10:51.708Z,18.80
2022-10-06T13:13:46.568Z,18.80
2022-10-06T13:16:39.509Z,19.10
2022-10-06T13:19:30.079Z,19.10
2022-10-06T13:22:17.761Z,19.00
2022-10-06T13:25:06.472Z,18.90
2022-10-06T13:27:54.227Z,18.90
2022-10-06T13:30:42.362Z,19.00
2022-10-06T13:33:34.481Z,19.00
2022-10-06T13:36:23.681Z,19.20
2022-10-06T13:39:15.052Z,19.60
2022-10-06T13:42:05.710Z,19.90
2022-10-06T13:44:58.885Z,20.20
2022-10-06T13:47:46.668Z,20.50
2022-10-06T13:50:37.453Z,20.90
2022-10-06T13:53:28.631Z,21.10
2022-10-06T13:56:36.053Z,21.30
2022-10-06T13:59:36.720Z,21.60
2022-10-06T14:02:26.607Z,21.80
2022-10-06T14:05:37.865Z,21.90
2022-10-06T14:08:28.099Z,22.10
2022-10-06T14:11:22.515Z,22.10
2022-10-06T14:14:17.995Z,21.90
2022-10-06T14:17:06.134Z,22.10
2022-10-06T14:19:53.789Z,22.10
2022-10-06T14:22:43.123Z,22.00
2022-10-06T14:25:30.955Z,21.60
2022-10-06T14:28:18.872Z,21.70
2022-10-06T14:31:12.012Z,21.90
2022-10-06T14:34:02.634Z,22.20
2022-10-06T14:36:52.534Z,22.60
2022-10-06T14:39:42.324Z,22.50
2022-10-06T14:42:30.066Z,22.50
2022-10-06T14:45:19.468Z,22.40
2022-10-06T14:48:07.077Z,22.60
2022-10-06T14:50:54.650Z,22.80
2022-10-06T14:53:42.561Z,22.50
2022-10-06T14:56:34.944Z,22.40
2022-10-06T14:59:22.977Z,22.10
2022-10-06T15:02:12.013Z,22.10
2022-10-06T15:04:59.498Z,21.70
2022-10-06T15:08:04.335Z,21.10
2022-10-06T15:10:55.104Z,20.40
2022-10-06T15:13:44.554Z,19.80
2022-10-06T15:16:34.359Z,19.30
2022-10-06T15:19:22.382Z,18.80
2022-10-06T15:22:10.505Z,18.50
2022-10-06T15:24:58.392Z,18.10
2022-10-06T15:28:03.668Z,17.90
2022-10-06T15:30:52.939Z,17.60
2022-10-06T15:33:40.581Z,17.40
2022-10-06T15:36:30.000Z,17.10
2022-10-06T15:39:17.957Z,17.00
2022-10-06T15:42:06.667Z,16.80
2022-10-06T15:44:54.747Z,16.60
2022-10-06T15:47:43.720Z,16.50
2022-10-06T15:50:31.601Z,16.30
2022-10-06T15:53:22.572Z,16.10
2022-10-06T15:56:10.655Z,16.10
2022-10-06T15:58:58.647Z,15.90
2022-10-06T16:01:47.826Z,15.80
2022-10-06T16:04:55.188Z,15.70
2022-10-06T16:07:42.750Z,15.50
2022-10-06T16:10:30.554Z,15.20
2022-10-06T16:13:18.308Z,15.00
2022-10-06T16:16:06.288Z,14.80
2022-10-06T16:18:54.114Z,14.50
2022-10-06T16:21:43.782Z,14.30
2022-10-06T16:24:31.459Z,14.00
2022-10-06T16:27:19.062Z,13.80
2022-10-06T16:30:08.627Z,13.60
2022-10-06T16:32:56.223Z,13.30
2022-10-06T16:35:44.707Z,13.10
2022-10-06T16:38:34.153Z,12.90
2022-10-06T16:41:22.556Z,12.70
2022-10-06T16:44:10.866Z,12.60
2022-10-06T16:46:58.931Z,12.40
2022-10-06T16:49:46.971Z,12.20
2022-10-06T16:52:34.598Z,12.00
2022-10-06T16:55:23.636Z,11.90
2022-10-06T16:58:11.344Z,11.80
2022-10-06T17:00:59.318Z,11.60
2022-10-06T17:03:46.946Z,11.50
2022-10-06T17:06:35.389Z,11.40
2022-10-06T17:09:24.461Z,11.20
2022-10-06T17:12:13.495Z,11.10
2022-10-06T17:15:00.920Z,11.00
2022-10-06T17:17:49.000Z,10.90
2022-10-06T17:20:36.947Z,10.80
2022-10-06T17:23:24.898Z,10.60
2022-10-06T17:26:17.550Z,10.60
2022-10-06T17:29:08.368Z,10.40
2022-10-06T17:31:59.001Z,10.30
2022-10-06T17:34:46.845Z,10.20
2022-10-06T17:37:34.525Z,10.20
2022-10-06T17:40:21.894Z,10.10
2022-10-06T17:43:09.281Z,9.90
2022-10-06T17:45:58.056Z,9.90
2022-10-06T17:48:46.383Z,9.80
2022-10-06T17:51:35.483Z,9.70
2022-10-06T17:54:24.198Z,9.70
2022-10-06T17:57:11.435Z,9.60
2022-10-06T17:59:59.062Z,9.50
2022-10-06T18:02:48.117Z,9.40
2022-10-06T18:05:35.551Z,9.30
2022-10-06T18:08:25.546Z,9.20
2022-10-06T18:11:31.195Z,9.10
2022-10-06T18:14:19.241Z,9.10
2022-10-06T18:17:07.765Z,9.00
2022-10-06T18:19:57.802Z,8.90
2022-10-06T18:22:45.395Z,8.80
2022-10-06T18:25:32.997Z,8.80
2022-10-06T18:28:20.503Z,8.70
2022-10-06T18:31:08.823Z,8.70
2022-10-06T18:37:05.193Z,8.60
2022-10-06T18:39:52.777Z,8.50
2022-10-06T18:42:40.371Z,8.50
2022-10-06T18:45:44.841Z,8.40
2022-10-06T18:48:49.742Z,8.30
2022-10-06T18:51:38.567Z,8.30
2022-10-06T18:54:30.094Z,8.20
2022-10-06T18:57:17.505Z,8.10
2022-10-06T19:00:05.382Z,8.10
2022-10-06T19:02:55.552Z,8.00
2022-10-06T19:05:52.033Z,8.00
2022-10-06T19:08:39.337Z,7.90
2022-10-06T19:11:46.166Z,7.80
2022-10-06T19:14:35.768Z,7.80
2022-10-06T19:17:24.396Z,7.70
2022-10-06T19:20:12.164Z,7.70
2022-10-06T19:22:59.610Z,7.60
2022-10-06T19:25:49.840Z,7.60
2022-10-06T19:28:39.451Z,7.50
2022-10-06T19:31:28.839Z,7.40
2022-10-06T19:34:18.019Z,7.40
2022-10-06T19:37:06.348Z,7.40
2022-10-06T19:39:54.599Z,7.30
2022-10-06T19:42:51.163Z,7.20
2022-10-06T19:45:40.773Z,7.20
2022-10-06T19:48:29.174Z,7.20
2022-10-06T19:51:19.084Z,7.10
2022-10-06T19:54:07.001Z,7.10
2022-10-06T19:56:56.185Z,7.00
2022-10-06T19:59:44.353Z,7.00
2022-10-06T20:02:34.926Z,6.90
2022-10-06T20:05:25.597Z,6.90
2022-10-06T20:08:13.219Z,6.80
2022-10-06T20:11:05.997Z,6.80
2022-10-06T20:13:53.544Z,6.80
2022-10-06T20:16:43.901Z,6.70
2022-10-06T20:19:33.141Z,6.70
2022-10-06T20:22:21.186Z,6.60
2022-10-06T20:25:09.166Z,6.60
2022-10-06T20:27:57.389Z,6.60
2022-10-06T20:30:50.002Z,6.50
2022-10-06T20:33:38.177Z,6.50
2022-10-06T20:36:28.063Z,6.40
2022-10-06T20:39:35.744Z,6.40
2022-10-06T20:42:23.579Z,6.40
2022-10-06T20:45:11.969Z,6.30
2022-10-06T20:48:00.280Z,6.30
2022-10-06T20:50:48.163Z,6.20
2022-10-06T20:53:37.286Z,6.20
2022-10-06T20:56:25.465Z,6.20
2022-10-06T20:59:14.965Z,6.10
2022-10-06T21:02:03.247Z,6.10
2022-10-06T21:04:51.258Z,6.00
2022-10-06T21:07:39.207Z,6.00
2022-10-06T21:10:28.212Z,6.00
2022-10-06T21:13:16.299Z,5.90
2022-10-06T21:16:04.675Z,5.90
2022-10-06T21:18:52.849Z,5.90
2022-10-06T21:21:41.565Z,5.80
2022-10-06T21:24:29.534Z,5.80
2022-10-06T21:27:19.275Z,5.70
2022-10-06T21:30:10.350Z,5.70
2022-10-06T21:32:58.599Z,5.60
2022-10-06T21:35:47.100Z,5.60
2022-10-06T21:38:37.189Z,5.60
2022-10-06T21:41:37.436Z,5.50
2022-10-06T21:44:26.761Z,5.50
2022-10-06T21:47:14.983Z,5.50
2022-10-06T21:50:03.220Z,5.40
2022-10-06T21:52:51.148Z,5.40
2022-10-06T21:55:41.889Z,5.40
2022-10-06T21:58:29.505Z,5.30
2022-10-06T22:01:20.105Z,5.30
2022-10-06T22:04:08.420Z,5.30
2022-10-06T22:06:55.979Z,5.30
2022-10-06T22:09:43.721Z,5.30
2022-10-06T22:12:31.408Z,5.20
2022-10-06T22:15:19.466Z,5.20
2022-10-06T22:18:08.436Z,5.20
2022-10-06T22:20:57.989Z,5.20
2022-10-06T22:23:47.562Z,5.10
2022-10-06T22:26:37.618Z,5.10
2022-10-06T22:29:25.473Z,5.10
2022-10-06T22:32:13.392Z,5.00
2022-10-06T22:35:02.559Z,5.00
2022-10-06T22:37:50.457Z,4.90
2022-10-06T22:40:38.440Z,4.90
2022-10-06T22:43:26.165Z,4.90
2022-10-06T22:46:14.039Z,4.80
2022-10-06T22:49:02.280Z,4.80
2022-10-06T22:51:51.626Z,4.70
2022-10-06T22:54:39.482Z,4.70
2022-10-06T22:57:27.216Z,4.70
2022-10-06T23:00:16.040Z,4.70
2022-10-06T23:03:03.727Z,4.60
2022-10-06T23:05:58.733Z,4.60
2022-10-06T23:08:49.489Z,4.50
2022-10-06T23:11:37.098Z,4.50
2022-10-06T23:14:24.798Z,4.50
2022-10-06T23:17:12.679Z,4.50
2022-10-06T23:20:00.299Z,4.40
2022-10-06T23:22:48.587Z,4.40
2022-10-06T23:25:39.599Z,4.40
2022-10-06T23:28:27.589Z,4.30
2022-10-06T23:31:15.197Z,4.30
2022-10-06T23:34:02.926Z,4.30
2022-10-06T23:36:50.942Z,4.20
2022-10-06T23:39:38.948Z,4.20
2022-10-06T23:42:28.340Z,4.20
2022-10-06T23:45:16.295Z,4.20
2022-10-06T23:48:06.442Z,4.10
2022-10-06T23:50:58.928Z,4.10
2022-10-06T23:53:47.076Z,4.10
2022-10-06T23:56:35.184Z,4.00
2022-10-06T23:59:26.339Z,4.00
